sensor_id;sensor_type;location;lat;lon;timestamp;pressure;altitude;pressure_sealevel;temperature;humidity
43681;BME280;29281;50.356;30.894;2023-02-17T00:00:38;100208.42;;;1.81;100.00
43681;BME280;29281;50.356;30.894;2023-02-17T00:01:41;100207.52;;;1.82;100.00
43681;BME280;29281;50.356;30.894;2023-02-17T00:02:45;100207.45;;;1.55;100.00
43681;BME280;29281;50.356;30.894;2023-02-17T00:03:49;100205.42;;;1.37;100.00
43681;BME280;29281;50.356;30.894;2023-02-17T00:04:53;100210.06;;;1.27;100.00
43681;BME280;29281;50.356;30.894;2023-02-17T00:05:56;100210.70;;;1.35;100.00
43681;BME280;29281;50.356;30.894;2023-02-17T00:06:59;100212.14;;;1.16;100.00
43681;BME280;29281;50.356;30.894;2023-02-17T00:08:03;100207.73;;;1.18;100.00
43681;BME280;29281;50.356;30.894;2023-02-17T00:09:05;100205.95;;;1.48;100.00
43681;BME280;29281;50.356;30.894;2023-02-17T00:10:10;100199.38;;;1.63;100.00
43681;BME280;29281;50.356;30.894;2023-02-17T00:11:14;100204.22;;;1.75;100.00
43681;BME280;29281;50.356;30.894;2023-02-17T00:12:18;100195.38;;;1.79;100.00
43681;BME280;29281;50.356;30.894;2023-02-17T00:13:25;100210.87;;;1.85;100.00
43681;BME280;29281;50.356;30.894;2023-02-17T00:14:28;100200.66;;;1.78;100.00
43681;BME280;29281;50.356;30.894;2023-02-17T00:15:32;100202.33;;;1.80;100.00
43681;BME280;29281;50.356;30.894;2023-02-17T00:16:36;100201.20;;;1.87;100.00
43681;BME280;29281;50.356;30.894;2023-02-17T00:17:39;100199.39;;;1.89;100.00
43681;BME280;29281;50.356;30.894;2023-02-17T00:18:42;100200.16;;;1.93;100.00
43681;BME280;29281;50.356;30.894;2023-02-17T00:19:46;100207.20;;;1.91;100.00
43681;BME280;29281;50.356;30.894;2023-02-17T00:20:49;100200.97;;;1.95;100.00
43681;BME280;29281;50.356;30.894;2023-02-17T00:21:56;100196.42;;;2.00;100.00
43681;BME280;29281;50.356;30.894;2023-02-17T00:22:59;100196.37;;;2.01;100.00
43681;BME280;29281;50.356;30.894;2023-02-17T00:24:05;100193.61;;;2.06;100.00
43681;BME280;29281;50.356;30.894;2023-02-17T00:25:08;100201.42;;;2.07;100.00
43681;BME280;29281;50.356;30.894;2023-02-17T00:26:12;100201.27;;;2.12;100.00
43681;BME280;29281;50.356;30.894;2023-02-17T00:27:16;100191.70;;;2.11;100.00
43681;BME280;29281;50.356;30.894;2023-02-17T00:28:22;100197.58;;;2.18;100.00
43681;BME280;29281;50.356;30.894;2023-02-17T00:29:25;100202.72;;;2.21;100.00
43681;BME280;29281;50.356;30.894;2023-02-17T00:30:31;100190.33;;;2.26;99.53
43681;BME280;29281;50.356;30.894;2023-02-17T00:31:35;100193.95;;;2.22;99.66
43681;BME280;29281;50.356;30.894;2023-02-17T00:32:38;100190.33;;;2.26;99.45
43681;BME280;29281;50.356;30.894;2023-02-17T00:33:42;100189.42;;;2.27;98.74
43681;BME280;29281;50.356;30.894;2023-02-17T00:34:45;100186.57;;;2.33;98.29
43681;BME280;29281;50.356;30.894;2023-02-17T00:35:48;100186.63;;;2.31;98.51
43681;BME280;29281;50.356;30.894;2023-02-17T00:36:52;100180.47;;;2.32;98.46
43681;BME280;29281;50.356;30.894;2023-02-17T00:37:56;100178.66;;;2.34;98.54
43681;BME280;29281;50.356;30.894;2023-02-17T00:39:00;100177.66;;;2.38;98.43
43681;BME280;29281;50.356;30.894;2023-02-17T00:40:04;100172.66;;;2.31;99.17
43681;BME280;29281;50.356;30.894;2023-02-17T00:41:08;100176.09;;;2.33;99.05
43681;BME280;29281;50.356;30.894;2023-02-17T00:42:11;100169.84;;;2.37;99.14
43681;BME280;29281;50.356;30.894;2023-02-17T00:43:18;100175.13;;;2.35;98.94
43681;BME280;29281;50.356;30.894;2023-02-17T00:44:24;100162.83;;;2.37;98.95
43681;BME280;29281;50.356;30.894;2023-02-17T00:45:28;100166.52;;;2.32;99.11
43681;BME280;29281;50.356;30.894;2023-02-17T00:46:31;100170.90;;;2.31;99.60
43681;BME280;29281;50.356;30.894;2023-02-17T00:47:34;100169.94;;;2.34;99.78
43681;BME280;29281;50.356;30.894;2023-02-17T00:48:40;100169.03;;;2.35;99.63
43681;BME280;29281;50.356;30.894;2023-02-17T00:49:46;100162.83;;;2.37;99.47
43681;BME280;29281;50.356;30.894;2023-02-17T00:50:50;100164.50;;;2.40;99.26
43681;BME280;29281;50.356;30.894;2023-02-17T00:51:53;100164.31;;;2.44;98.67
43681;BME280;29281;50.356;30.894;2023-02-17T00:52:56;100160.06;;;2.42;98.49
43681;BME280;29281;50.356;30.894;2023-02-17T00:53:59;100155.83;;;2.38;98.59
43681;BME280;29281;50.356;30.894;2023-02-17T00:55:03;100147.97;;;2.38;98.64
43681;BME280;29281;50.356;30.894;2023-02-17T00:56:07;100152.41;;;2.36;98.89
43681;BME280;29281;50.356;30.894;2023-02-17T00:57:12;100142.78;;;2.36;98.86
43681;BME280;29281;50.356;30.894;2023-02-17T00:58:15;100148.06;;;2.35;99.11
43681;BME280;29281;50.356;30.894;2023-02-17T00:59:18;100143.53;;;2.40;98.85
43681;BME280;29281;50.356;30.894;2023-02-17T01:00:22;100151.34;;;2.41;98.38
43681;BME280;29281;50.356;30.894;2023-02-17T01:01:26;100147.01;;;2.40;98.38
43681;BME280;29281;50.356;30.894;2023-02-17T01:02:29;100145.34;;;2.38;98.57
43681;BME280;29281;50.356;30.894;2023-02-17T01:03:34;100148.06;;;2.35;98.60
43681;BME280;29281;50.356;30.894;2023-02-17T01:04:37;100148.98;;;2.34;99.14
43681;BME280;29281;50.356;30.894;2023-02-17T01:05:45;100149.78;;;2.36;98.94
43681;BME280;29281;50.356;30.894;2023-02-17T01:06:50;100153.31;;;2.35;99.43
43681;BME280;29281;50.356;30.894;2023-02-17T01:07:54;100145.55;;;2.32;99.30
43681;BME280;29281;50.356;30.894;2023-02-17T01:08:57;100140.96;;;2.38;99.63
43681;BME280;29281;50.356;30.894;2023-02-17T01:10:05;100144.39;;;2.40;99.46
43681;BME280;29281;50.356;30.894;2023-02-17T01:11:15;100136.28;;;2.46;98.54
43681;BME280;29281;50.356;30.894;2023-02-17T01:12:13;100138.91;;;2.46;98.87
43681;BME280;29281;50.356;30.894;2023-02-17T01:13:18;100141.87;;;2.37;99.07
43681;BME280;29281;50.356;30.894;2023-02-17T01:14:24;100143.34;;;2.44;98.92
43681;BME280;29281;50.356;30.894;2023-02-17T01:15:29;100133.72;;;2.45;98.64
43681;BME280;29281;50.356;30.894;2023-02-17T01:16:37;100138.75;;;2.51;98.73
43681;BME280;29281;50.356;30.894;2023-02-17T01:17:40;100131.75;;;2.52;98.33
43681;BME280;29281;50.356;30.894;2023-02-17T01:18:43;100129.13;;;2.52;98.47
43681;BME280;29281;50.356;30.894;2023-02-17T01:19:49;100133.41;;;2.54;98.27
43681;BME280;29281;50.356;30.894;2023-02-17T01:20:52;100127.25;;;2.55;98.02
43681;BME280;29281;50.356;30.894;2023-02-17T01:21:55;100125.64;;;2.51;98.24
43681;BME280;29281;50.356;30.894;2023-02-17T01:22:58;100121.10;;;2.56;97.73
43681;BME280;29281;50.356;30.894;2023-02-17T01:24:05;100122.12;;;2.52;97.38
43681;BME280;29281;50.356;30.894;2023-02-17T01:25:12;100126.34;;;2.56;97.37
43681;BME280;29281;50.356;30.894;2023-02-17T01:26:16;100123.53;;;2.61;97.10
43681;BME280;29281;50.356;30.894;2023-02-17T01:27:19;100114.90;;;2.59;97.10
43681;BME280;29281;50.356;30.894;2023-02-17T01:28:22;100121.85;;;2.60;97.21
43681;BME280;29281;50.356;30.894;2023-02-17T01:29:25;100116.61;;;2.60;97.43
43681;BME280;29281;50.356;30.894;2023-02-17T01:30:29;100122.68;;;2.60;97.47
43681;BME280;29281;50.356;30.894;2023-02-17T01:31:31;100116.61;;;2.60;97.10
43681;BME280;29281;50.356;30.894;2023-02-17T01:32:35;100123.48;;;2.62;97.07
43681;BME280;29281;50.356;30.894;2023-02-17T01:33:38;100119.04;;;2.64;96.99
43681;BME280;29281;50.356;30.894;2023-02-17T01:34:43;100121.61;;;2.66;97.03
43681;BME280;29281;50.356;30.894;2023-02-17T01:35:48;100118.43;;;2.58;97.39
43681;BME280;29281;50.356;30.894;2023-02-17T01:36:51;100118.64;;;2.52;97.77
43681;BME280;29281;50.356;30.894;2023-02-17T01:37:56;100117.03;;;2.47;98.12
43681;BME280;29281;50.356;30.894;2023-02-17T01:39:01;100121.42;;;2.47;98.61
43681;BME280;29281;50.356;30.894;2023-02-17T01:40:05;100117.27;;;2.41;99.11
43681;BME280;29281;50.356;30.894;2023-02-17T01:41:07;100118.84;;;2.45;98.83
43681;BME280;29281;50.356;30.894;2023-02-17T01:42:14;100114.41;;;2.47;97.78
43681;BME280;29281;50.356;30.894;2023-02-17T01:43:17;100117.89;;;2.48;97.12
43681;BME280;29281;50.356;30.894;2023-02-17T01:44:22;100117.38;;;2.38;98.44
43681;BME280;29281;50.356;30.894;2023-02-17T01:45:32;100114.91;;;2.34;98.82
43681;BME280;29281;50.356;30.894;2023-02-17T01:46:36;100113.20;;;2.33;99.67
43681;BME280;29281;50.356;30.894;2023-02-17T01:47:40;100106.03;;;2.38;99.38
43681;BME280;29281;50.356;30.894;2023-02-17T01:48:46;100108.50;;;2.42;99.20
43681;BME280;29281;50.356;30.894;2023-02-17T01:49:51;100107.64;;;2.42;99.08
43681;BME280;29281;50.356;30.894;2023-02-17T01:50:54;100099.73;;;2.43;99.56
43681;BME280;29281;50.356;30.894;2023-02-17T01:52:09;100105.08;;;2.40;99.27
43681;BME280;29281;50.356;30.894;2023-02-17T01:53:13;100111.23;;;2.39;99.02
43681;BME280;29281;50.356;30.894;2023-02-17T01:54:19;100105.13;;;2.39;98.85
43681;BME280;29281;50.356;30.894;2023-02-17T01:55:22;100106.59;;;2.46;97.90
43681;BME280;29281;50.356;30.894;2023-02-17T01:56:27;100099.44;;;2.51;97.01
43681;BME280;29281;50.356;30.894;2023-02-17T01:57:33;100105.83;;;2.44;97.23
43681;BME280;29281;50.356;30.894;2023-02-17T01:58:38;100104.97;;;2.43;97.90
43681;BME280;29281;50.356;30.894;2023-02-17T01:59:44;100108.81;;;2.33;98.77
43681;BME280;29281;50.356;30.894;2023-02-17T02:00:47;100101.59;;;2.40;98.56
43681;BME280;29281;50.356;30.894;2023-02-17T02:01:54;100100.50;;;2.45;97.64
43681;BME280;29281;50.356;30.894;2023-02-17T02:03:00;100105.94;;;2.41;96.91
43681;BME280;29281;50.356;30.894;2023-02-17T02:04:07;100105.02;;;2.42;96.84
43681;BME280;29281;50.356;30.894;2023-02-17T02:05:13;100104.84;;;2.46;97.66
43681;BME280;29281;50.356;30.894;2023-02-17T02:06:22;100107.64;;;2.42;98.49
43681;BME280;29281;50.356;30.894;2023-02-17T02:07:33;100100.69;;;2.41;99.39
43681;BME280;29281;50.356;30.894;2023-02-17T02:08:37;100102.41;;;2.42;99.12
43681;BME280;29281;50.356;30.894;2023-02-17T02:09:51;100110.08;;;2.46;99.23
43681;BME280;29281;50.356;30.894;2023-02-17T02:10:55;100107.51;;;2.45;98.83
43681;BME280;29281;50.356;30.894;2023-02-17T02:11:58;100110.93;;;2.47;98.63
43681;BME280;29281;50.356;30.894;2023-02-17T02:13:03;100113.55;;;2.47;99.09
43681;BME280;29281;50.356;30.894;2023-02-17T02:14:06;100116.13;;;2.48;99.08
43681;BME280;29281;50.356;30.894;2023-02-17T02:15:12;100111.63;;;2.52;98.42
43681;BME280;29281;50.356;30.894;2023-02-17T02:16:24;100113.98;;;2.60;97.59
43681;BME280;29281;50.356;30.894;2023-02-17T02:17:29;100115.75;;;2.59;96.42
43681;BME280;29281;50.356;30.894;2023-02-17T02:20:06;100117.33;;;2.63;96.04
43681;BME280;29281;50.356;30.894;2023-02-17T02:22:17;100113.91;;;2.61;96.44
43681;BME280;29281;50.356;30.894;2023-02-17T02:28:37;100126.30;;;2.58;95.00
43681;BME280;29281;50.356;30.894;2023-02-17T02:29:51;100120.86;;;2.62;94.73
43681;BME280;29281;50.356;30.894;2023-02-17T02:31:00;100120.80;;;2.64;94.37
43681;BME280;29281;50.356;30.894;2023-02-17T02:34:45;100122.30;;;2.71;93.49
43681;BME280;29281;50.356;30.894;2023-02-17T02:37:05;100120.54;;;2.71;93.92
43681;BME280;29281;50.356;30.894;2023-02-17T02:38:10;100121.45;;;2.70;94.45
43681;BME280;29281;50.356;30.894;2023-02-17T02:39:18;100117.92;;;2.71;94.37
43681;BME280;29281;50.356;30.894;2023-02-17T02:40:26;100110.86;;;2.73;94.25
43681;BME280;29281;50.356;30.894;2023-02-17T02:41:31;100112.67;;;2.71;94.44
43681;BME280;29281;50.356;30.894;2023-02-17T02:42:35;100123.91;;;2.75;94.51
43681;BME280;29281;50.356;30.894;2023-02-17T02:43:40;100112.63;;;2.73;94.15
43681;BME280;29281;50.356;30.894;2023-02-17T02:44:47;100116.31;;;2.67;93.88
43681;BME280;29281;50.356;30.894;2023-02-17T02:45:50;100122.41;;;2.68;93.86
43681;BME280;29281;50.356;30.894;2023-02-17T02:46:59;100121.45;;;2.70;93.71
43681;BME280;29281;50.356;30.894;2023-02-17T02:48:02;100119.63;;;2.72;93.66
43681;BME280;29281;50.356;30.894;2023-02-17T02:49:07;100114.44;;;2.71;94.28
43681;BME280;29281;50.356;30.894;2023-02-17T02:50:16;100116.16;;;2.72;94.43
43681;BME280;29281;50.356;30.894;2023-02-17T02:51:19;100117.92;;;2.71;94.22
43681;BME280;29281;50.356;30.894;2023-02-17T02:52:37;100116.42;;;2.64;94.97
43681;BME280;29281;50.356;30.894;2023-02-17T02:55:02;100111.81;;;2.71;94.37
43681;BME280;29281;50.356;30.894;2023-02-17T02:56:14;100119.44;;;2.77;93.79
43681;BME280;29281;50.356;30.894;2023-02-17T03:01:29;100118.53;;;2.55;94.13
43681;BME280;29281;50.356;30.894;2023-02-17T03:02:47;100122.81;;;2.57;93.89
43681;BME280;29281;50.356;30.894;2023-02-17T03:04:02;100120.00;;;2.62;93.70
43681;BME280;29281;50.356;30.894;2023-02-17T03:05:11;100120.75;;;2.65;93.57
43681;BME280;29281;50.356;30.894;2023-02-17T03:06:21;100120.80;;;2.64;93.34
43681;BME280;29281;50.356;30.894;2023-02-17T03:07:29;100113.64;;;2.21;95.97
43681;BME280;29281;50.356;30.894;2023-02-17T03:08:37;100116.21;;;1.97;98.00
43681;BME280;29281;50.356;30.894;2023-02-17T03:09:41;100129.06;;;1.79;100.00
43681;BME280;29281;50.356;30.894;2023-02-17T03:10:48;100119.00;;;1.66;100.00
43681;BME280;29281;50.356;30.894;2023-02-17T03:11:55;100121.57;;;1.68;100.00
43681;BME280;29281;50.356;30.894;2023-02-17T03:13:00;100115.06;;;1.80;100.00
43681;BME280;29281;50.356;30.894;2023-02-17T03:14:09;100124.68;;;1.79;100.00
43681;BME280;29281;50.356;30.894;2023-02-17T03:15:18;100120.98;;;1.85;100.00
43681;BME280;29281;50.356;30.894;2023-02-17T03:16:20;100120.84;;;1.89;100.00
43681;BME280;29281;50.356;30.894;2023-02-17T03:17:25;100116.11;;;1.74;100.00
43681;BME280;29281;50.356;30.894;2023-02-17T03:18:30;100124.41;;;1.87;100.00
43681;BME280;29281;50.356;30.894;2023-02-17T03:19:33;100113.98;;;1.85;100.00
43681;BME280;29281;50.356;30.894;2023-02-17T03:20:36;100120.79;;;1.91;100.00
43681;BME280;29281;50.356;30.894;2023-02-17T03:21:49;100108.06;;;1.80;100.00
43681;BME280;29281;50.356;30.894;2023-02-17T03:22:53;100121.97;;;1.82;100.00
43681;BME280;29281;50.356;30.894;2023-02-17T03:23:58;100115.25;;;1.73;100.00
43681;BME280;29281;50.356;30.894;2023-02-17T03:25:03;100111.69;;;1.76;100.00
43681;BME280;29281;50.356;30.894;2023-02-17T03:26:06;100113.94;;;1.87;100.00
43681;BME280;29281;50.356;30.894;2023-02-17T03:27:11;100108.55;;;1.91;100.00
43681;BME280;29281;50.356;30.894;2023-02-17T03:28:16;100119.68;;;1.71;100.00
43681;BME280;29281;50.356;30.894;2023-02-17T03:29:21;100119.91;;;1.65;100.00
43681;BME280;29281;50.356;30.894;2023-02-17T03:30:25;100119.33;;;1.56;100.00
43681;BME280;29281;50.356;30.894;2023-02-17T03:31:27;100123.97;;;1.48;100.00
43681;BME280;29281;50.356;30.894;2023-02-17T03:32:32;100110.47;;;1.33;100.00
43681;BME280;29281;50.356;30.894;2023-02-17T03:33:37;100120.84;;;1.36;100.00
43681;BME280;29281;50.356;30.894;2023-02-17T03:34:42;100118.06;;;1.41;100.00
43681;BME280;29281;50.356;30.894;2023-02-17T03:35:45;100119.77;;;1.42;100.00
43681;BME280;29281;50.356;30.894;2023-02-17T03:36:51;100116.39;;;1.38;100.00
43681;BME280;29281;50.356;30.894;2023-02-17T03:37:54;100111.92;;;1.42;100.00
43681;BME280;29281;50.356;30.894;2023-02-17T03:38:57;100117.06;;;1.45;100.00
43681;BME280;29281;50.356;30.894;2023-02-17T03:40:00;100116.92;;;1.50;100.00
43681;BME280;29281;50.356;30.894;2023-02-17T03:41:02;100117.92;;;1.46;100.00
43681;BME280;29281;50.356;30.894;2023-02-17T03:42:06;100115.17;;;1.50;100.00
43681;BME280;29281;50.356;30.894;2023-02-17T03:43:09;100115.26;;;1.47;100.00
43681;BME280;29281;50.356;30.894;2023-02-17T03:44:12;100118.59;;;1.52;100.00
43681;BME280;29281;50.356;30.894;2023-02-17T03:45:15;100109.72;;;1.56;100.00
43681;BME280;29281;50.356;30.894;2023-02-17T03:46:18;100112.09;;;1.64;100.00
43681;BME280;29281;50.356;30.894;2023-02-17T03:47:21;100118.37;;;1.58;100.00
43681;BME280;29281;50.356;30.894;2023-02-17T03:48:28;100114.95;;;1.56;100.00
43681;BME280;29281;50.356;30.894;2023-02-17T03:49:30;100111.73;;;1.48;100.00
43681;BME280;29281;50.356;30.894;2023-02-17T03:50:38;100107.69;;;1.38;100.00
43681;BME280;29281;50.356;30.894;2023-02-17T03:51:41;100118.84;;;1.17;100.00
43681;BME280;29281;50.356;30.894;2023-02-17T03:52:44;100119.94;;;1.37;100.00
43681;BME280;29281;50.356;30.894;2023-02-17T03:53:48;100119.45;;;1.53;100.00
43681;BME280;29281;50.356;30.894;2023-02-17T03:54:52;100124.28;;;1.65;100.00
43681;BME280;29281;50.356;30.894;2023-02-17T03:55:56;100124.19;;;1.68;100.00
43681;BME280;29281;50.356;30.894;2023-02-17T03:56:58;100128.30;;;1.75;100.00
43681;BME280;29281;50.356;30.894;2023-02-17T03:58:03;100116.92;;;1.76;100.00
43681;BME280;29281;50.356;30.894;2023-02-17T03:59:06;100110.78;;;1.77;100.00
43681;BME280;29281;50.356;30.894;2023-02-17T04:00:10;100116.55;;;1.87;100.00
43681;BME280;29281;50.356;30.894;2023-02-17T04:01:16;100118.54;;;1.80;100.00
43681;BME280;29281;50.356;30.894;2023-02-17T04:02:19;100115.88;;;1.82;100.00
43681;BME280;29281;50.356;30.894;2023-02-17T04:03:27;100112.13;;;1.89;100.00
43681;BME280;29281;50.356;30.894;2023-02-17T04:04:27;100115.55;;;1.91;100.00
43681;BME280;29281;50.356;30.894;2023-02-17T04:05:29;100117.31;;;1.90;100.00
43681;BME280;29281;50.356;30.894;2023-02-17T04:06:34;100117.78;;;1.76;100.00
43681;BME280;29281;50.356;30.894;2023-02-17T04:07:39;100130.02;;;1.76;100.00
43681;BME280;29281;50.356;30.894;2023-02-17T04:08:43;100124.50;;;1.84;100.00
43681;BME280;29281;50.356;30.894;2023-02-17T04:09:46;100116.45;;;1.90;100.00
43681;BME280;29281;50.356;30.894;2023-02-17T04:10:53;100120.79;;;1.91;100.00
43681;BME280;29281;50.356;30.894;2023-02-17T04:11:57;100125.12;;;1.92;100.00
43681;BME280;29281;50.356;30.894;2023-02-17T04:13:01;100129.36;;;1.96;100.00
43681;BME280;29281;50.356;30.894;2023-02-17T04:14:07;100124.27;;;1.91;100.00
43681;BME280;29281;50.356;30.894;2023-02-17T04:15:10;100133.17;;;1.86;100.00
43681;BME280;29281;50.356;30.894;2023-02-17T04:16:13;100127.08;;;1.85;100.00
43681;BME280;29281;50.356;30.894;2023-02-17T04:17:17;100128.59;;;1.92;100.00
43681;BME280;29281;50.356;30.894;2023-02-17T04:18:20;100131.22;;;1.92;100.00
43681;BME280;29281;50.356;30.894;2023-02-17T04:19:24;100125.93;;;1.94;100.00
43681;BME280;29281;50.356;30.894;2023-02-17T04:20:27;100135.40;;;1.98;100.00
43681;BME280;29281;50.356;30.894;2023-02-17T04:21:33;100128.40;;;1.98;100.00
43681;BME280;29281;50.356;30.894;2023-02-17T04:22:37;100135.45;;;1.96;100.00
43681;BME280;29281;50.356;30.894;2023-02-17T04:23:39;100134.47;;;1.99;100.00
43681;BME280;29281;50.356;30.894;2023-02-17T04:24:43;100131.16;;;1.94;100.00
43681;BME280;29281;50.356;30.894;2023-02-17T04:25:46;100129.41;;;1.94;100.00
43681;BME280;29281;50.356;30.894;2023-02-17T04:26:50;100135.59;;;1.92;100.00
43681;BME280;29281;50.356;30.894;2023-02-17T04:27:53;100133.02;;;1.90;100.00
43681;BME280;29281;50.356;30.894;2023-02-17T04:28:55;100131.12;;;1.95;100.00
43681;BME280;29281;50.356;30.894;2023-02-17T04:29:59;100128.27;;;2.01;100.00
43681;BME280;29281;50.356;30.894;2023-02-17T04:31:01;100129.03;;;2.05;100.00
43681;BME280;29281;50.356;30.894;2023-02-17T04:32:05;100132.36;;;2.10;100.00
43681;BME280;29281;50.356;30.894;2023-02-17T04:33:10;100129.78;;;2.08;100.00
43681;BME280;29281;50.356;30.894;2023-02-17T04:34:14;100130.94;;;2.00;100.00
43681;BME280;29281;50.356;30.894;2023-02-17T04:35:18;100128.55;;;1.94;100.00
43681;BME280;29281;50.356;30.894;2023-02-17T04:36:20;100134.93;;;1.85;100.00
43681;BME280;29281;50.356;30.894;2023-02-17T04:37:26;100132.98;;;1.92;100.00
43681;BME280;29281;50.356;30.894;2023-02-17T04:38:30;100123.16;;;1.98;100.00
43681;BME280;29281;50.356;30.894;2023-02-17T04:39:34;100129.08;;;2.03;100.00
43681;BME280;29281;50.356;30.894;2023-02-17T04:40:39;100126.45;;;2.03;100.00
43681;BME280;29281;50.356;30.894;2023-02-17T04:41:44;100129.22;;;1.99;100.00
43681;BME280;29281;50.356;30.894;2023-02-17T04:42:47;100128.17;;;2.04;100.00
43681;BME280;29281;50.356;30.894;2023-02-17T04:43:51;100128.98;;;2.06;100.00
43681;BME280;29281;50.356;30.894;2023-02-17T04:44:54;100128.93;;;2.08;100.00
43681;BME280;29281;50.356;30.894;2023-02-17T04:45:57;100129.88;;;2.05;100.00
43681;BME280;29281;50.356;30.894;2023-02-17T04:47:01;100132.60;;;2.02;100.00
43681;BME280;29281;50.356;30.894;2023-02-17T04:48:04;100134.55;;;1.97;100.00
43681;BME280;29281;50.356;30.894;2023-02-17T04:49:08;100136.41;;;1.94;100.00
43681;BME280;29281;50.356;30.894;2023-02-17T04:50:14;100133.08;;;1.89;100.00
43681;BME280;29281;50.356;30.894;2023-02-17T04:51:22;100126.69;;;1.97;100.00
43681;BME280;29281;50.356;30.894;2023-02-17T04:52:24;100128.50;;;1.95;100.00
43681;BME280;29281;50.356;30.894;2023-02-17T04:53:29;100133.64;;;1.98;100.00
43681;BME280;29281;50.356;30.894;2023-02-17T04:54:32;100129.08;;;2.03;100.00
43681;BME280;29281;50.356;30.894;2023-02-17T04:55:35;100133.51;;;2.01;100.00
43681;BME280;29281;50.356;30.894;2023-02-17T04:56:37;100130.08;;;1.99;100.00
43681;BME280;29281;50.356;30.894;2023-02-17T04:57:41;100132.07;;;1.93;100.00
43681;BME280;29281;50.356;30.894;2023-02-17T04:58:44;100132.78;;;1.98;100.00
43681;BME280;29281;50.356;30.894;2023-02-17T04:59:48;100136.26;;;1.98;100.00
43681;BME280;29281;50.356;30.894;2023-02-17T05:00:51;100139.92;;;1.93;100.00
43681;BME280;29281;50.356;30.894;2023-02-17T05:01:54;100139.88;;;1.94;100.00
43681;BME280;29281;50.356;30.894;2023-02-17T05:02:58;100138.12;;;1.95;100.00
43681;BME280;29281;50.356;30.894;2023-02-17T05:04:01;100146.02;;;1.93;100.00
43681;BME280;29281;50.356;30.894;2023-02-17T05:05:05;100150.45;;;1.91;100.00
43681;BME280;29281;50.356;30.894;2023-02-17T05:06:08;100150.31;;;1.96;100.00
43681;BME280;29281;50.356;30.894;2023-02-17T05:07:13;100150.13;;;2.00;100.00
43681;BME280;29281;50.356;30.894;2023-02-17T05:08:15;100156.35;;;1.98;100.00
43681;BME280;29281;50.356;30.894;2023-02-17T05:09:19;100154.59;;;1.98;100.00
43681;BME280;29281;50.356;30.894;2023-02-17T05:10:23;100154.73;;;1.94;100.00
43681;BME280;29281;50.356;30.894;2023-02-17T05:11:26;100152.48;;;1.83;100.00
43681;BME280;29281;50.356;30.894;2023-02-17T05:12:29;100157.72;;;1.83;100.00
43681;BME280;29281;50.356;30.894;2023-02-17T05:13:31;100154.12;;;1.86;100.00
43681;BME280;29281;50.356;30.894;2023-02-17T05:14:36;100157.77;;;1.82;100.00
43681;BME280;29281;50.356;30.894;2023-02-17T05:15:42;100155.24;;;1.79;100.00
43681;BME280;29281;50.356;30.894;2023-02-17T05:16:45;100154.29;;;1.81;100.00
43681;BME280;29281;50.356;30.894;2023-02-17T05:17:52;100152.31;;;1.88;100.00
43681;BME280;29281;50.356;30.894;2023-02-17T05:18:56;100155.69;;;1.91;100.00
43681;BME280;29281;50.356;30.894;2023-02-17T05:20:00;100152.26;;;1.89;100.00
43681;BME280;29281;50.356;30.894;2023-02-17T05:21:03;100158.16;;;1.96;100.00
43681;BME280;29281;50.356;30.894;2023-02-17T05:22:09;100159.97;;;1.94;100.00
43681;BME280;29281;50.356;30.894;2023-02-17T05:23:13;100162.08;;;2.09;100.00
43681;BME280;29281;50.356;30.894;2023-02-17T05:24:17;100159.70;;;2.01;100.00
43681;BME280;29281;50.356;30.894;2023-02-17T05:25:20;100164.98;;;2.00;100.00
43681;BME280;29281;50.356;30.894;2023-02-17T05:26:24;100167.52;;;2.03;100.00
43681;BME280;29281;50.356;30.894;2023-02-17T05:27:29;100159.61;;;2.04;100.00
43681;BME280;29281;50.356;30.894;2023-02-17T05:28:35;100161.27;;;2.07;100.00
43681;BME280;29281;50.356;30.894;2023-02-17T05:29:39;100165.97;;;1.97;100.00
43681;BME280;29281;50.356;30.894;2023-02-17T05:30:43;100167.02;;;1.92;100.00
43681;BME280;29281;50.356;30.894;2023-02-17T05:31:49;100182.06;;;1.85;100.00
43681;BME280;29281;50.356;30.894;2023-02-17T05:32:55;100174.66;;;1.71;100.00
43681;BME280;29281;50.356;30.894;2023-02-17T05:33:59;100170.59;;;1.63;100.00
43681;BME280;29281;50.356;30.894;2023-02-17T05:35:04;100180.38;;;1.56;100.00
43681;BME280;29281;50.356;30.894;2023-02-17T05:36:09;100178.44;;;1.63;100.00
43681;BME280;29281;50.356;30.894;2023-02-17T05:37:13;100173.84;;;1.69;100.00
43681;BME280;29281;50.356;30.894;2023-02-17T05:38:16;100176.77;;;1.60;100.00
43681;BME280;29281;50.356;30.894;2023-02-17T05:39:21;100179.39;;;1.60;100.00
43681;BME280;29281;50.356;30.894;2023-02-17T05:40:24;100185.30;;;1.67;100.00
43681;BME280;29281;50.356;30.894;2023-02-17T05:41:28;100182.05;;;1.59;100.00
43681;BME280;29281;50.356;30.894;2023-02-17T05:42:30;100179.69;;;1.51;100.00
43681;BME280;29281;50.356;30.894;2023-02-17T05:43:34;100188.48;;;1.49;100.00
43681;BME280;29281;50.356;30.894;2023-02-17T05:44:38;100186.69;;;1.51;100.00
43681;BME280;29281;50.356;30.894;2023-02-17T05:45:43;100182.14;;;1.56;100.00
43681;BME280;29281;50.356;30.894;2023-02-17T05:46:46;100186.64;;;1.52;100.00
43681;BME280;29281;50.356;30.894;2023-02-17T05:47:49;100189.05;;;1.58;100.00
43681;BME280;29281;50.356;30.894;2023-02-17T05:48:53;100187.80;;;1.70;100.00
43681;BME280;29281;50.356;30.894;2023-02-17T05:49:57;100187.70;;;1.73;100.00
43681;BME280;29281;50.356;30.894;2023-02-17T05:51:00;100191.85;;;1.80;100.00
43681;BME280;29281;50.356;30.894;2023-02-17T05:52:04;100179.84;;;1.73;100.00
43681;BME280;29281;50.356;30.894;2023-02-17T05:53:07;100188.70;;;1.69;100.00